createdAt,value
2022-08-19T00:00:53.488Z,23.64
2022-08-19T00:03:24.352Z,23.77
2022-08-19T00:05:55.821Z,23.54
2022-08-19T00:08:27.081Z,23.63
2022-08-19T00:10:58.039Z,23.71
2022-08-19T00:13:30.740Z,23.66
2022-08-19T00:16:02.103Z,23.72
2022-08-19T00:18:35.960Z,23.53
2022-08-19T00:21:08.656Z,23.51
2022-08-19T00:23:40.081Z,23.53
2022-08-19T00:26:11.897Z,23.66
2022-08-19T00:28:43.360Z,23.73
2022-08-19T00:31:14.191Z,23.67
2022-08-19T00:33:45.629Z,23.70
2022-08-19T00:36:17.838Z,23.48
2022-08-19T00:38:48.996Z,23.52
2022-08-19T00:41:22.524Z,23.53
2022-08-19T00:44:13.905Z,23.49
2022-08-19T00:46:55.501Z,23.27
2022-08-19T00:49:31.283Z,22.95
2022-08-19T00:52:11.030Z,23.10
2022-08-19T00:54:43.600Z,23.26
2022-08-19T00:57:17.395Z,23.21
2022-08-19T01:00:00.530Z,23.01
2022-08-19T01:02:25.689Z,23.14
2022-08-19T01:04:56.888Z,23.06
2022-08-19T01:07:28.059Z,23.09
2022-08-19T01:10:02.036Z,23.14
2022-08-19T01:12:33.411Z,23.05
2022-08-19T01:15:05.861Z,22.92
2022-08-19T01:17:38.624Z,22.93
2022-08-19T01:20:16.967Z,22.99
2022-08-19T01:22:54.039Z,22.71
2022-08-19T01:25:30.999Z,22.94
2022-08-19T01:28:07.214Z,22.87
2022-08-19T01:30:37.311Z,22.93
2022-08-19T01:33:08.366Z,22.73
2022-08-19T01:35:40.958Z,22.94
2022-08-19T01:38:14.968Z,22.87
2022-08-19T01:40:46.569Z,22.94
2022-08-19T01:43:17.718Z,22.86
2022-08-19T01:45:50.298Z,22.76
2022-08-19T01:48:21.261Z,22.86
2022-08-19T01:50:52.322Z,22.95
2022-08-19T01:53:23.198Z,22.93
2022-08-19T01:55:55.870Z,22.86
2022-08-19T01:58:31.221Z,22.77
2022-08-19T02:01:01.501Z,22.85
2022-08-19T02:03:32.213Z,22.86
2022-08-19T02:06:06.504Z,22.90
2022-08-19T02:08:39.447Z,22.87
2022-08-19T02:11:10.613Z,22.93
2022-08-19T02:13:41.980Z,22.68
2022-08-19T02:16:13.170Z,22.86
2022-08-19T02:18:44.090Z,22.57
2022-08-19T02:21:15.767Z,22.60
2022-08-19T02:23:48.581Z,22.56
2022-08-19T02:26:21.269Z,22.66
2022-08-19T02:28:52.620Z,22.78
2022-08-19T02:31:25.808Z,22.53
2022-08-19T02:33:58.717Z,22.53
2022-08-19T02:36:30.283Z,22.71
2022-08-19T02:39:01.571Z,22.68
2022-08-19T02:41:35.281Z,22.70
2022-08-19T02:44:30.246Z,22.70
2022-08-19T02:46:41.380Z,22.62
2022-08-19T02:49:13.468Z,22.60
2022-08-19T02:51:46.440Z,22.59
2022-08-19T02:54:17.831Z,22.58
2022-08-19T02:56:49.298Z,22.71
2022-08-19T02:59:20.298Z,22.44
2022-08-19T03:01:52.860Z,22.47
2022-08-19T03:04:24.837Z,22.49
2022-08-19T03:06:59.575Z,22.50
2022-08-19T03:09:28.796Z,22.57
2022-08-19T03:11:59.854Z,22.46
2022-08-19T03:14:35.341Z,22.55
2022-08-19T03:17:07.578Z,22.55
2022-08-19T03:19:39.768Z,22.64
2022-08-19T03:22:10.876Z,22.69
2022-08-19T03:24:41.997Z,22.57
2022-08-19T03:27:13.777Z,22.52
2022-08-19T03:29:46.460Z,22.68
2022-08-19T03:32:32.675Z,22.51
2022-08-19T03:34:52.367Z,22.54
2022-08-19T03:37:23.948Z,22.50
2022-08-19T03:39:55.114Z,22.55
2022-08-19T03:42:38.779Z,22.43
2022-08-19T03:45:00.384Z,22.40
2022-08-19T03:47:31.968Z,22.34
2022-08-19T03:50:03.658Z,22.43
2022-08-19T03:52:37.339Z,22.33
2022-08-19T03:55:09.103Z,22.53
2022-08-19T03:57:39.976Z,22.43
2022-08-19T04:00:13.996Z,22.30
2022-08-19T04:02:58.166Z,22.43
2022-08-19T04:05:18.067Z,22.24
2022-08-19T04:07:49.128Z,22.22
2022-08-19T04:10:21.095Z,22.17
2022-08-19T04:12:52.258Z,22.51
2022-08-19T04:15:23.422Z,22.58
2022-08-19T04:17:54.478Z,22.43
2022-08-19T04:20:25.537Z,22.37
2022-08-19T04:22:56.597Z,22.44
2022-08-19T04:25:27.647Z,22.38
2022-08-19T04:27:58.402Z,22.44
2022-08-19T04:30:29.490Z,22.37
2022-08-19T04:33:00.772Z,22.35
2022-08-19T04:35:33.529Z,22.39
2022-08-19T04:38:04.488Z,22.66
2022-08-19T04:40:53.969Z,22.49
2022-08-19T04:43:24.817Z,22.58
2022-08-19T04:45:56.805Z,22.62
2022-08-19T04:48:29.098Z,22.73
2022-08-19T04:51:01.653Z,22.32
2022-08-19T04:53:35.544Z,22.47
2022-08-19T04:56:12.858Z,22.63
2022-08-19T04:58:45.848Z,22.60
2022-08-19T05:01:19.556Z,22.73
2022-08-19T05:03:51.286Z,22.76
2022-08-19T05:06:23.849Z,22.81
2022-08-19T05:08:56.252Z,22.89
2022-08-19T05:11:33.042Z,22.70
2022-08-19T05:14:04.206Z,22.93
2022-08-19T05:16:36.003Z,22.93
2022-08-19T05:19:25.142Z,23.13
2022-08-19T05:22:15.470Z,22.81
2022-08-19T05:25:09.279Z,23.10
2022-08-19T05:27:18.766Z,23.21
2022-08-19T05:29:51.158Z,23.26
2022-08-19T05:32:23.137Z,23.26
2022-08-19T05:34:54.092Z,23.44
2022-08-19T05:37:26.998Z,23.20
2022-08-19T05:39:58.621Z,23.49
2022-08-19T05:42:29.620Z,23.77
2022-08-19T05:45:00.821Z,23.70
2022-08-19T05:47:31.703Z,23.63
2022-08-19T05:50:05.063Z,23.75
2022-08-19T05:52:37.834Z,24.12
2022-08-19T05:55:09.798Z,24.13
2022-08-19T05:57:42.130Z,24.34
2022-08-19T06:00:14.349Z,24.48
2022-08-19T06:02:45.326Z,24.43
2022-08-19T06:05:16.412Z,24.37
2022-08-19T06:07:47.488Z,24.65
2022-08-19T06:10:18.631Z,24.74
2022-08-19T06:12:50.091Z,24.54
2022-08-19T06:15:21.054Z,24.50
2022-08-19T06:17:52.190Z,24.53
2022-08-19T06:20:45.939Z,24.88
2022-08-19T06:22:56.086Z,24.82
2022-08-19T06:25:30.440Z,24.92
2022-08-19T06:28:14.553Z,24.96
2022-08-19T06:30:35.288Z,24.98
2022-08-19T06:33:09.667Z,25.04
2022-08-19T06:38:19.201Z,25.25
2022-08-19T06:40:50.271Z,25.41
2022-08-19T06:43:21.118Z,25.54
2022-08-19T06:45:53.961Z,25.65
2022-08-19T06:48:24.772Z,25.58
2022-08-19T06:50:57.301Z,25.64
2022-08-19T06:53:29.650Z,25.78
2022-08-19T06:56:02.213Z,25.78
2022-08-19T06:58:36.478Z,25.70
2022-08-19T07:01:09.240Z,25.86
2022-08-19T07:03:41.216Z,25.67
2022-08-19T07:06:39.402Z,25.80
2022-08-19T07:08:50.136Z,25.89
2022-08-19T07:11:22.509Z,25.97
2022-08-19T07:13:56.812Z,26.10
2022-08-19T07:16:29.723Z,26.18
2022-08-19T07:19:11.870Z,26.34
2022-08-19T07:21:33.987Z,26.30
2022-08-19T07:24:07.332Z,26.45
2022-08-19T07:26:44.395Z,26.54
2022-08-19T07:29:16.389Z,26.47
2022-08-19T07:31:47.773Z,26.98
2022-08-19T07:34:21.338Z,26.67
2022-08-19T07:36:54.703Z,27.03
2022-08-19T07:39:28.822Z,27.05
2022-08-19T07:42:01.560Z,27.20
2022-08-19T07:44:33.079Z,27.29
2022-08-19T07:47:05.732Z,27.35
2022-08-19T07:49:37.245Z,27.32
2022-08-19T07:52:10.621Z,27.33
2022-08-19T07:54:42.547Z,27.50
2022-08-19T07:57:13.648Z,27.67
2022-08-19T07:59:44.871Z,27.92
2022-08-19T08:02:16.232Z,27.57
2022-08-19T08:05:05.399Z,27.49
2022-08-19T08:07:56.073Z,27.83
2022-08-19T08:10:27.109Z,27.78
2022-08-19T08:13:10.392Z,28.16
2022-08-19T08:15:31.355Z,28.20
2022-08-19T08:18:02.231Z,28.37
2022-08-19T08:20:33.671Z,28.52
2022-08-19T08:23:23.084Z,28.18
2022-08-19T08:26:00.470Z,28.00
2022-08-19T08:28:31.674Z,28.01
2022-08-19T08:31:02.836Z,28.15
2022-08-19T08:33:36.390Z,28.31
2022-08-19T08:36:09.291Z,28.47
2022-08-19T08:38:41.787Z,28.34
2022-08-19T08:41:39.455Z,28.30
2022-08-19T08:44:26.887Z,28.54
2022-08-19T08:47:04.170Z,28.64
2022-08-19T08:50:03.293Z,28.57
2022-08-19T08:52:44.658Z,28.52
2022-08-19T08:55:21.026Z,28.66
2022-08-19T08:57:56.643Z,28.79
2022-08-19T09:00:37.078Z,28.92
2022-08-19T09:03:16.706Z,28.91
2022-08-19T09:06:11.848Z,28.94
2022-08-19T09:08:44.111Z,29.26
2022-08-19T09:11:42.374Z,29.48
2022-08-19T09:14:02.788Z,29.54
2022-08-19T09:16:37.933Z,29.54
2022-08-19T09:19:09.813Z,29.38
2022-08-19T09:21:40.818Z,29.69
2022-08-19T09:24:12.729Z,29.97
2022-08-19T09:26:48.709Z,30.10
2022-08-19T09:29:18.561Z,30.27
2022-08-19T09:31:49.720Z,30.02
2022-08-19T09:34:22.163Z,30.17
2022-08-19T09:36:55.029Z,30.51
2022-08-19T09:39:26.026Z,30.57
2022-08-19T09:41:59.054Z,30.88
2022-08-19T09:44:30.261Z,30.78
2022-08-19T09:47:01.921Z,30.65
2022-08-19T09:49:33.558Z,30.39
2022-08-19T09:52:05.339Z,30.60
2022-08-19T09:54:37.155Z,30.54
2022-08-19T09:57:08.656Z,30.57
2022-08-19T09:59:41.431Z,31.20
2022-08-19T10:02:13.447Z,31.18
2022-08-19T10:05:04.453Z,31.02
2022-08-19T10:07:37.128Z,31.45
2022-08-19T10:10:11.050Z,31.86
2022-08-19T10:12:48.815Z,31.75
2022-08-19T10:15:28.852Z,31.85
2022-08-19T10:17:56.236Z,32.02
2022-08-19T10:20:28.673Z,31.84
2022-08-19T10:23:01.447Z,32.12
2022-08-19T10:25:35.599Z,32.12
2022-08-19T10:28:10.558Z,31.87
2022-08-19T10:30:42.852Z,32.08
2022-08-19T10:33:15.430Z,31.99
2022-08-19T10:35:56.442Z,32.10
2022-08-19T10:38:20.969Z,32.04
2022-08-19T10:40:54.419Z,32.02
2022-08-19T10:43:26.899Z,32.46
2022-08-19T10:45:59.860Z,32.52
2022-08-19T10:48:31.097Z,32.36
2022-08-19T10:51:22.905Z,32.06
2022-08-19T10:53:53.841Z,32.16
2022-08-19T10:56:43.359Z,32.46
2022-08-19T10:59:15.491Z,32.56
2022-08-19T11:01:48.091Z,32.66
2022-08-19T11:04:29.633Z,32.98
2022-08-19T11:06:58.509Z,32.69
2022-08-19T11:09:34.348Z,32.48
2022-08-19T11:12:04.749Z,32.80
2022-08-19T11:14:38.379Z,33.05
2022-08-19T11:17:09.587Z,33.08
2022-08-19T11:19:40.655Z,33.45
2022-08-19T11:22:12.445Z,33.60
2022-08-19T11:24:45.273Z,33.40
2022-08-19T11:27:16.517Z,33.45
2022-08-19T11:29:47.490Z,33.57
2022-08-19T11:32:18.884Z,33.61
2022-08-19T11:34:50.130Z,33.77
2022-08-19T11:37:21.299Z,33.67
2022-08-19T11:39:53.513Z,34.00
2022-08-19T11:42:43.012Z,33.62
2022-08-19T11:45:15.615Z,34.04
2022-08-19T11:47:48.646Z,34.21
2022-08-19T11:50:20.249Z,34.08
2022-08-19T11:52:51.498Z,34.03
2022-08-19T11:55:22.794Z,34.01
2022-08-19T11:57:53.953Z,33.95
2022-08-19T12:00:25.290Z,34.33
2022-08-19T12:02:56.726Z,34.20
2022-08-19T12:05:27.655Z,34.50
2022-08-19T12:07:58.861Z,34.17
2022-08-19T12:10:31.442Z,34.09
2022-08-19T12:13:03.239Z,33.55
2022-08-19T12:15:42.717Z,33.93
2022-08-19T12:18:15.624Z,34.16
2022-08-19T12:20:49.029Z,34.29
2022-08-19T12:23:20.305Z,34.39
2022-08-19T12:25:53.092Z,34.65
2022-08-19T12:28:26.667Z,34.74
2022-08-19T12:31:00.043Z,34.87
2022-08-19T12:33:33.866Z,34.60
2022-08-19T12:36:07.407Z,34.75
2022-08-19T12:38:39.161Z,35.20
2022-08-19T12:41:13.572Z,34.61
2022-08-19T12:43:46.150Z,34.72
2022-08-19T12:46:19.118Z,35.03
2022-08-19T12:48:54.106Z,35.11
2022-08-19T12:51:23.133Z,34.95
2022-08-19T12:53:54.314Z,34.75
2022-08-19T12:56:25.333Z,34.51
2022-08-19T12:58:57.254Z,34.65
2022-08-19T13:01:29.307Z,34.68
2022-08-19T13:04:01.019Z,34.38
2022-08-19T13:06:31.990Z,34.38
2022-08-19T13:09:03.171Z,34.74
2022-08-19T13:11:34.945Z,34.69
2022-08-19T13:14:07.709Z,34.41
2022-08-19T13:16:39.696Z,34.22
2022-08-19T13:19:11.010Z,34.21
2022-08-19T13:21:42.640Z,34.01
2022-08-19T13:24:13.732Z,33.80
2022-08-19T13:26:45.245Z,33.51
2022-08-19T13:29:34.453Z,33.71
2022-08-19T13:32:23.832Z,34.03
2022-08-19T13:34:54.980Z,33.80
2022-08-19T13:37:44.453Z,34.15
2022-08-19T13:40:25.384Z,34.24
2022-08-19T13:42:58.809Z,34.32
2022-08-19T13:45:33.255Z,33.88
2022-08-19T13:48:08.084Z,33.66
2022-08-19T13:50:44.822Z,33.56
2022-08-19T13:53:16.477Z,33.44
2022-08-19T13:55:47.989Z,33.61
2022-08-19T13:58:19.103Z,33.63
2022-08-19T14:00:51.135Z,33.66
2022-08-19T14:03:22.249Z,33.71
2022-08-19T14:05:53.620Z,33.62
2022-08-19T14:08:24.773Z,33.74
2022-08-19T14:10:56.182Z,33.77
2022-08-19T14:13:27.681Z,33.86
2022-08-19T14:16:00.231Z,34.13
2022-08-19T14:18:31.603Z,33.89
2022-08-19T14:21:02.996Z,33.98
2022-08-19T14:23:34.949Z,33.90
2022-08-19T14:26:11.409Z,33.89
2022-08-19T14:28:43.388Z,34.11
2022-08-19T14:31:17.807Z,33.64
2022-08-19T14:33:51.768Z,33.79
2022-08-19T14:36:23.419Z,33.81
2022-08-19T14:38:54.628Z,33.99
2022-08-19T14:41:25.992Z,33.94
2022-08-19T14:44:33.962Z,33.80
2022-08-19T14:50:32.574Z,33.49
2022-08-19T14:53:12.236Z,33.45
2022-08-19T14:55:45.613Z,33.39
2022-08-19T14:58:29.583Z,33.48
2022-08-19T15:01:03.543Z,33.50
2022-08-19T15:03:37.910Z,33.57
2022-08-19T15:06:12.561Z,33.46
2022-08-19T15:08:46.302Z,33.42
2022-08-19T15:11:24.412Z,33.13
2022-08-19T15:13:56.064Z,33.42
2022-08-19T15:16:35.772Z,33.33
2022-08-19T15:19:07.324Z,33.29
2022-08-19T15:21:38.855Z,33.20
2022-08-19T15:24:11.142Z,33.25
2022-08-19T15:26:44.456Z,33.25
2022-08-19T15:29:16.857Z,33.08
2022-08-19T15:31:48.126Z,33.09
2022-08-19T15:34:20.128Z,33.12
2022-08-19T15:36:51.779Z,32.89
2022-08-19T15:39:24.178Z,33.13
2022-08-19T15:41:55.330Z,33.15
2022-08-19T15:44:27.984Z,33.08
2022-08-19T15:47:00.652Z,32.93
2022-08-19T15:49:31.684Z,32.93
2022-08-19T15:52:03.017Z,32.81
2022-08-19T15:54:34.153Z,32.80
2022-08-19T15:57:23.061Z,32.82
2022-08-19T16:00:12.542Z,32.92
2022-08-19T16:03:01.402Z,32.72
2022-08-19T16:05:51.041Z,32.61
2022-08-19T16:08:21.998Z,32.48
2022-08-19T16:10:52.982Z,32.35
2022-08-19T16:13:25.424Z,32.48
2022-08-19T16:15:58.005Z,32.30
2022-08-19T16:18:47.648Z,32.35
2022-08-19T16:21:18.862Z,32.37
2022-08-19T16:23:51.933Z,32.40
2022-08-19T16:26:22.902Z,32.06
2022-08-19T16:28:57.764Z,32.09
2022-08-19T16:31:30.755Z,31.94
2022-08-19T16:34:02.210Z,31.69
2022-08-19T16:36:34.617Z,31.66
2022-08-19T16:39:05.775Z,31.48
2022-08-19T16:41:37.859Z,31.28
2022-08-19T16:44:11.000Z,31.33
2022-08-19T16:46:42.589Z,31.29
2022-08-19T16:49:13.798Z,31.20
2022-08-19T16:51:45.939Z,31.17
2022-08-19T16:54:17.758Z,31.20
2022-08-19T16:56:50.246Z,31.15
2022-08-19T16:59:21.286Z,31.02
2022-08-19T17:01:53.202Z,31.00
2022-08-19T17:04:24.433Z,30.91
2022-08-19T17:06:57.031Z,30.71
2022-08-19T17:09:27.818Z,30.71
2022-08-19T17:12:00.515Z,30.65
2022-08-19T17:14:31.556Z,30.53
2022-08-19T17:17:02.717Z,30.45
2022-08-19T17:19:33.966Z,30.32
2022-08-19T17:22:05.465Z,30.30
2022-08-19T17:24:36.712Z,30.15
2022-08-19T17:27:08.268Z,30.17
2022-08-19T17:29:39.947Z,30.11
2022-08-19T17:32:12.352Z,30.19
2022-08-19T17:34:43.378Z,30.20
2022-08-19T17:37:16.191Z,30.17
2022-08-19T17:39:48.660Z,30.12
2022-08-19T17:42:20.892Z,30.06
2022-08-19T17:44:53.493Z,29.97
2022-08-19T17:47:27.355Z,29.86
2022-08-19T17:49:58.361Z,29.87
2022-08-19T17:52:30.887Z,29.81
2022-08-19T17:55:02.338Z,29.74
2022-08-19T17:57:33.580Z,29.56
2022-08-19T18:00:06.168Z,29.52
2022-08-19T18:02:46.866Z,29.38
2022-08-19T18:05:18.696Z,29.13
2022-08-19T18:07:52.650Z,29.27
2022-08-19T18:10:30.830Z,29.10
2022-08-19T18:13:02.342Z,29.01
2022-08-19T18:15:35.263Z,29.00
2022-08-19T18:18:11.750Z,29.02
2022-08-19T18:20:41.112Z,28.83
2022-08-19T18:23:44.676Z,29.15
2022-08-19T18:25:45.454Z,28.95
2022-08-19T18:28:16.676Z,29.05
2022-08-19T18:30:51.006Z,29.04
2022-08-19T18:33:22.056Z,28.87
2022-08-19T18:35:53.615Z,28.91
2022-08-19T18:38:43.398Z,29.06
2022-08-19T18:41:32.483Z,29.06
2022-08-19T18:44:21.520Z,28.83
2022-08-19T18:47:10.896Z,28.87
2022-08-19T18:49:41.990Z,28.93
2022-08-19T18:52:13.025Z,28.80
2022-08-19T18:54:45.650Z,28.97
2022-08-19T18:57:17.165Z,28.95
2022-08-19T18:59:48.899Z,28.84
2022-08-19T19:02:20.578Z,28.67
2022-08-19T19:04:52.199Z,28.90
2022-08-19T19:07:23.804Z,28.72
2022-08-19T19:09:56.344Z,28.63
2022-08-19T19:12:29.753Z,28.78
2022-08-19T19:15:02.279Z,28.67
2022-08-19T19:17:33.921Z,28.75
2022-08-19T19:20:06.489Z,28.63
2022-08-19T19:22:37.729Z,28.69
2022-08-19T19:25:09.248Z,28.66
2022-08-19T19:27:40.919Z,28.71
2022-08-19T19:30:14.129Z,28.40
2022-08-19T19:32:46.777Z,28.56
2022-08-19T19:35:19.950Z,28.54
2022-08-19T19:37:53.607Z,28.51
2022-08-19T19:40:25.329Z,28.16
2022-08-19T19:42:56.688Z,28.42
2022-08-19T19:45:28.547Z,28.32
2022-08-19T19:48:01.066Z,28.34
2022-08-19T19:50:32.417Z,27.90
2022-08-19T19:53:03.842Z,28.12
2022-08-19T19:55:35.117Z,28.24
2022-08-19T19:58:07.535Z,28.17
2022-08-19T20:00:39.119Z,28.09
2022-08-19T20:03:10.893Z,28.14
2022-08-19T20:05:42.317Z,28.08
2022-08-19T20:08:31.510Z,28.12
2022-08-19T20:11:07.935Z,27.76
2022-08-19T20:13:40.717Z,27.52
2022-08-19T20:16:13.788Z,27.49
2022-08-19T20:18:45.528Z,27.55
2022-08-19T20:21:17.146Z,27.44
2022-08-19T20:24:08.971Z,27.48
2022-08-19T20:26:32.310Z,27.48
2022-08-19T20:29:07.262Z,27.22
2022-08-19T20:31:29.832Z,27.31
2022-08-19T20:34:02.827Z,27.16
2022-08-19T20:36:34.929Z,27.22
2022-08-19T20:39:07.228Z,27.20
2022-08-19T20:41:38.543Z,27.24
2022-08-19T20:44:10.277Z,27.11
2022-08-19T20:46:42.748Z,27.36
2022-08-19T20:49:17.131Z,27.42
2022-08-19T20:51:48.012Z,27.42
2022-08-19T20:54:19.229Z,27.28
2022-08-19T20:56:50.377Z,26.91
2022-08-19T20:59:22.029Z,26.65
2022-08-19T21:01:54.720Z,26.72
2022-08-19T21:04:25.929Z,26.98
2022-08-19T21:06:58.393Z,27.13
2022-08-19T21:09:29.688Z,27.03
2022-08-19T21:12:01.190Z,26.69
2022-08-19T21:14:32.725Z,26.68
2022-08-19T21:17:03.830Z,26.83
2022-08-19T21:19:34.788Z,26.78
2022-08-19T21:22:06.440Z,26.82
2022-08-19T21:24:38.795Z,26.77
2022-08-19T21:27:11.573Z,26.76
2022-08-19T21:29:42.635Z,26.82
2022-08-19T21:32:14.387Z,26.84
2022-08-19T21:34:47.408Z,26.74
2022-08-19T21:37:25.287Z,26.69
2022-08-19T21:39:53.471Z,26.75
2022-08-19T21:42:25.315Z,26.91
2022-08-19T21:44:56.359Z,26.87
2022-08-19T21:47:28.740Z,26.67
2022-08-19T21:49:59.674Z,26.87
2022-08-19T21:52:31.113Z,26.87
2022-08-19T21:55:02.309Z,26.84
2022-08-19T21:57:33.870Z,26.87
2022-08-19T22:00:07.772Z,26.67
2022-08-19T22:02:40.032Z,26.62
2022-08-19T22:05:11.319Z,26.51
2022-08-19T22:07:43.318Z,26.33
2022-08-19T22:10:14.498Z,26.36
2022-08-19T22:12:51.512Z,26.06
2022-08-19T22:15:21.641Z,25.31
2022-08-19T22:17:52.872Z,25.32
2022-08-19T22:20:27.439Z,25.26
2022-08-19T22:23:02.579Z,25.02
2022-08-19T22:25:36.581Z,24.78
2022-08-19T22:28:10.952Z,25.06
2022-08-19T22:30:43.804Z,25.13
2022-08-19T22:33:22.029Z,24.92
2022-08-19T22:35:54.478Z,25.09
2022-08-19T22:38:26.111Z,24.45
2022-08-19T22:40:57.909Z,24.55
2022-08-19T22:43:32.142Z,24.82
2022-08-19T22:46:05.223Z,24.62
2022-08-19T22:48:36.790Z,24.38
2022-08-19T22:51:25.842Z,24.67
2022-08-19T22:53:58.528Z,24.81
2022-08-19T22:56:29.827Z,24.65
2022-08-19T22:59:00.755Z,24.71
2022-08-19T23:01:33.101Z,24.76
2022-08-19T23:04:05.932Z,24.75
2022-08-19T23:06:41.427Z,24.74
2022-08-19T23:09:10.875Z,24.71
2022-08-19T23:11:43.414Z,24.63
2022-08-19T23:14:15.423Z,24.48
2022-08-19T23:16:51.075Z,24.27
2022-08-19T23:19:22.101Z,24.25
2022-08-19T23:21:54.151Z,24.27
2022-08-19T23:24:25.452Z,24.33
2022-08-19T23:27:14.440Z,24.46
2022-08-19T23:30:03.360Z,24.41
2022-08-19T23:32:36.872Z,24.25
2022-08-19T23:35:08.705Z,24.34
2022-08-19T23:37:39.807Z,24.43
2022-08-19T23:40:11.555Z,23.60
2022-08-19T23:42:45.709Z,24.04
2022-08-19T23:45:23.552Z,24.30
2022-08-19T23:47:50.226Z,24.11
2022-08-19T23:50:21.772Z,24.16
2022-08-19T23:52:55.469Z,24.03
2022-08-19T23:55:32.603Z,24.22
2022-08-19T23:58:07.187Z,24.15
